createdAt,value
2022-11-16T00:03:39.688Z,14.05
2022-11-16T00:18:42.001Z,14.40
2022-11-16T00:33:43.918Z,13.63
2022-11-16T00:48:45.840Z,13.75
2022-11-16T01:03:48.261Z,14.95
2022-11-16T01:18:52.762Z,12.82
2022-11-16T01:33:55.200Z,14.35
2022-11-16T01:49:13.739Z,14.30
2022-11-16T02:04:15.701Z,14.70
2022-11-16T02:19:48.657Z,14.70
2022-11-16T02:35:20.779Z,15.55
2022-11-16T02:50:24.719Z,14.32
2022-11-16T03:05:46.859Z,16.88
2022-11-16T03:20:53.056Z,15.55
2022-11-16T03:36:16.477Z,16.83
2022-11-16T03:51:18.459Z,19.38
2022-11-16T04:06:39.040Z,18.17
2022-11-16T04:37:22.417Z,15.50
2022-11-16T04:52:24.538Z,15.33
2022-11-16T05:07:26.628Z,14.30
2022-11-16T05:22:28.800Z,14.13
2022-11-16T05:37:30.800Z,14.18
2022-11-16T05:52:32.719Z,12.30
2022-11-16T06:07:34.812Z,11.35
2022-11-16T06:22:36.838Z,4.82
2022-11-16T06:37:38.781Z,4.40
2022-11-16T06:52:40.744Z,3.28
2022-11-16T07:07:42.781Z,3.17
2022-11-16T07:22:44.799Z,2.90
2022-11-16T07:37:46.860Z,3.25
2022-11-16T07:52:48.901Z,2.88
2022-11-16T08:07:50.921Z,2.70
2022-11-16T08:22:52.881Z,2.92
2022-11-16T08:37:54.827Z,3.28
2022-11-16T08:53:00.183Z,3.22
2022-11-16T09:08:02.279Z,3.13
2022-11-16T09:23:04.296Z,3.10
2022-11-16T09:38:07.040Z,2.70
2022-11-16T09:53:17.981Z,2.50
2022-11-16T10:08:43.598Z,2.97
2022-11-16T10:24:03.460Z,2.72
2022-11-16T10:39:13.763Z,2.73
2022-11-16T10:54:17.797Z,1.20
2022-11-16T11:09:35.802Z,1.90
2022-11-16T11:24:46.460Z,3.03
2022-11-16T11:39:48.455Z,2.03
2022-11-16T11:54:52.966Z,5.53
2022-11-16T12:10:23.760Z,3.50
2022-11-16T12:25:34.403Z,2.85
2022-11-16T12:40:50.496Z,2.47
2022-11-16T12:56:11.194Z,2.85
2022-11-16T13:11:22.033Z,3.63
2022-11-16T13:26:38.833Z,2.92
2022-11-16T13:41:43.793Z,4.47
2022-11-16T13:56:51.635Z,4.18
2022-11-16T14:11:53.548Z,3.97
2022-11-16T14:27:09.903Z,4.50
2022-11-16T14:42:24.973Z,3.80
2022-11-16T14:57:26.925Z,3.30
2022-11-16T15:12:42.376Z,2.75
2022-11-16T15:27:44.352Z,3.30
2022-11-16T15:42:46.435Z,3.35
2022-11-16T15:58:00.114Z,2.65
2022-11-16T16:13:02.932Z,2.90
2022-11-16T16:28:05.287Z,3.90
2022-11-16T16:43:07.198Z,4.25
2022-11-16T16:58:12.343Z,4.82
2022-11-16T17:13:14.208Z,4.68
2022-11-16T17:28:16.120Z,4.72
2022-11-16T17:43:18.096Z,4.50
2022-11-16T17:58:20.299Z,5.05
2022-11-16T18:13:22.357Z,5.03
2022-11-16T18:28:25.919Z,5.00
2022-11-16T18:43:27.997Z,4.40
2022-11-16T19:13:58.105Z,5.97
2022-11-16T19:29:01.836Z,6.85
2022-11-16T19:44:03.878Z,6.43
2022-11-16T19:59:05.817Z,7.60
2022-11-16T20:14:10.852Z,7.45
2022-11-16T20:29:14.634Z,6.30
2022-11-16T20:44:19.783Z,5.85
2022-11-16T20:59:21.882Z,6.57
2022-11-16T21:14:24.117Z,6.60
2022-11-16T21:29:26.104Z,6.78
2022-11-16T21:44:42.037Z,6.88
2022-11-16T21:59:44.197Z,7.40
2022-11-16T22:14:46.083Z,6.10
2022-11-16T22:29:48.014Z,6.00
2022-11-16T22:44:49.979Z,5.78
2022-11-16T22:59:51.938Z,6.20
2022-11-16T23:15:12.355Z,6.32
2022-11-16T23:30:14.477Z,5.70
2022-11-16T23:45:16.967Z,6.85
